Weather observations for the past three days for
Chester County Airport
Imperial (Metric)
Date Time (edt) Wind (mph) Vis. (mi.) Weather Sky Cond. Temperature (ºF) Relative Humidity Wind Chill (°F) Heat Index (°F) Pressure Precipitation (in)
Air Dwpt 6 hour altimeter (in) sea level (mb) 1 hr 3 hr 6 hr
Max. Min.
05 00:55 Calm 8.00 Fair CLR 58.8 44.4 59% 29.85 0.0
05 00:35 Calm 10.00 Fair CLR 59 43.7 57% 29.85 0.0
05 00:15 Vrbl 5 10.00 A Few Clouds FEW110 59.2 43 55% 29.84 0.0
04 23:55 Vrbl 5 10.00 Partly Cloudy SCT110 59.9 41.9 52% 29.83 0.0
04 23:35 Vrbl 5 10.00 Fair CLR 60.4 41.7 50% 29.83 0.0
04 23:15 Vrbl 3 10.00 Partly Cloudy SCT080 61.3 41.5 48% 29.84 0.0
04 22:55 Vrbl 5 10.00 Partly Cloudy SCT080 62.1 41.5 47% 29.83 0.0
04 22:35 Vrbl 6 10.00 Partly Cloudy SCT085 62.1 41.4 47% 29.83 0.0
04 22:15 Vrbl 5 10.00 Mostly Cloudy BKN085 62.6 41.2 46% 29.84 0.0
04 21:55 Vrbl 3 10.00 Fair CLR 62.6 40.8 45% 29.84 0.0
04 21:35 Vrbl 3 10.00 Fair CLR 62.8 40.6 44% 29.84 0.0
04 21:15 Calm 10.00 Fair CLR 62.8 40.8 45% 29.83 0.0
04 20:55 Vrbl 3 10.00 A Few Clouds FEW085 63.7 40.1 42% 29.83 0.0
04 20:35 Vrbl 5 9.00 Fair CLR 64 40.1 42% 29.83 0.0
04 20:15 Calm 9.00 Fair CLR 64.9 40.1 40% 29.82 0.0
04 19:55 Vrbl 5 9.00 Fair CLR 66.4 39.7 70 66.4 38% 29.82 0.0
04 19:35 S 6 10.00 Fair CLR 66.9 39.6 37% 29.82 0.0
04 19:15 Vrbl 6 9.00 Fair CLR 67.6 39.7 36% 29.82 0.0
04 18:55 S 10 10.00 Fair CLR 68.2 39 35% 29.82 0.0
04 18:35 Vrbl 7 10.00 Fair CLR 68.4 39.4 35% 29.82 0.0
04 18:15 S 7 G 16 9.00 Fair CLR 68.9 39.2 34% 29.82 0.0
04 17:55 S 10 G 17 10.00 Fair CLR 69.4 38.7 33% 29.82 0.0
04 17:35 S 12 G 21 10.00 Fair CLR 69.3 37.9 32% 29.82 0.0
04 17:15 Vrbl 6 9.00 Fair CLR 70 39.6 33% 29.82 0.0
04 16:55 Vrbl 7 9.00 Fair CLR 69.8 39.2 33% 29.82 0.0
04 16:35 S 8 G 18 9.00 Fair CLR 69.4 39 33% 29.82 0.0
04 16:15 S 12 G 21 8.00 Fair CLR 69.1 39 33% 29.83 0.0
04 15:55 Vrbl 7 9.00 Fair CLR 69.8 39.7 34% 29.84 0.0
04 15:35 S 8 9.00 Fair CLR 69.3 39.9 34% 29.84 0.0
04 15:15 SW 9 9.00 A Few Clouds FEW070 69.4 38.7 33% 29.85 0.0
04 14:55 Vrbl 5 9.00 Fair CLR 69.3 38.7 33% 29.86 0.0
04 14:35 S 8 9.00 Fair CLR 68.7 37.9 32% 29.86 0.0
04 14:15 SW 8 9.00 Fair CLR 68 37.8 33% 29.87 0.0
04 13:55 Vrbl 7 9.00 Fair CLR 68 37 68.5 51.8 32% 29.88 0.0
04 13:35 Vrbl 5 9.00 A Few Clouds FEW340 68.2 37.9 33% 29.88 0.0
04 13:15 S 8 9.00 A Few Clouds FEW340 66.7 36.5 33% 29.9 0.0
04 12:55 SW 10 G 16 9.00 A Few Clouds FEW370 66.6 36.1 33% 29.91 0.0
04 12:35 W 12 9.00 Fair CLR 66.6 36.7 33% 29.91 0.0
04 12:15 W 9 9.00 Fair CLR 65.7 35.6 33% 29.92 0.0
04 11:55 W 9 9.00 Fair CLR 65.1 35.8 34% 29.93 0.0
04 11:35 Vrbl 5 9.00 Fair CLR 64.2 34.7 33% 29.94 0.0
04 11:15 W 7 10.00 Fair CLR 64.2 35.2 34% 29.94 0.0
04 10:55 W 9 9.00 Fair CLR 63 35.4 36% 29.94 0.0
04 10:35 Vrbl 7 9.00 Fair CLR 61.9 37.6 41% 29.94 0.0
04 10:15 Vrbl 6 9.00 Fair CLR 60.6 37.4 42% 29.94 0.0
04 09:55 Vrbl 3 9.00 Fair CLR 58.6 40.8 52% 29.94 0.0
04 09:35 Calm 9.00 Fair CLR 56.8 41.4 56% 29.95 0.0
04 09:15 Vrbl 3 9.00 Fair CLR 55.8 41.5 59% 29.95 0.0
04 08:55 Vrbl 7 9.00 Fair CLR 54.7 41 60% 29.95 0.0
04 08:35 Vrbl 6 9.00 Fair CLR 53.8 41.4 63% 29.95 0.0
04 08:15 Vrbl 6 9.00 Fair CLR 52.5 40.8 65% 29.95 0.0
04 07:55 Calm 9.00 Fair CLR 50.9 39.2 50.9 43.9 64% 29.95 0.0
04 07:35 SW 5 10.00 Fair CLR 50.2 37.9 63% 29.95 0.0
04 07:15 Vrbl 5 9.00 Fair CLR 48.7 35.6 61% 47 29.96 0.0
04 06:55 Vrbl 5 9.00 A Few Clouds FEW130 47.1 32.9 58% 46 29.96 0.0
04 06:35 Vrbl 6 9.00 Fair CLR 46.2 31.8 57% 44 29.96 0.0
04 06:15 Vrbl 5 8.00 Fair CLR 44.2 30.2 58% 42 29.96 0.0
04 05:55 Vrbl 5 8.00 Fair CLR 44.2 29.7 57% 42 29.96 0.0
04 05:35 Vrbl 3 10.00 A Few Clouds FEW130 44.8 29.3 55% 29.96 0.0
04 05:15 SW 3 9.00 A Few Clouds FEW140 44.8 29.7 56% 29.96 0.0
04 04:55 SW 6 9.00 Fair CLR 45.3 30.4 56% 43 29.96 0.0
04 04:35 SW 6 10.00 Fair CLR 47.1 29.5 50% 45 29.96 0.0
04 04:15 SW 6 10.00 Fair CLR 47.7 29.1 49% 45 29.96 0.0
04 03:55 W 5 10.00 Fair CLR 47.7 28.9 48% 46 29.96 0.0
04 03:15 Vrbl 6 10.00 Fair CLR 47.7 29.3 49% 45 29.96 0.0
04 02:55 SW 6 10.00 Fair CLR 47.7 30.2 51% 45 29.96 0.0
04 02:35 W 6 10.00 Fair CLR 48.2 29.8 49% 46 29.96 0.0
04 02:15 Vrbl 6 10.00 Fair CLR 48.6 29.7 48% 47 29.96 0.0
04 01:55 W 6 10.00 Fair CLR 49.1 29.7 54.9 48.4 47% 47 29.96 0.0
04 01:35 W 7 10.00 Fair CLR 49.3 29.1 46% 47 29.96 0.0
04 01:15 W 6 10.00 Fair CLR 48.7 29.7 48% 47 29.97 0.0
04 00:55 W 7 10.00 Fair CLR 49.1 29.3 47% 47 29.97 0.0
04 00:35 W 6 10.00 Fair CLR 48.4 29.5 48% 46 29.97 0.0
04 00:15 Vrbl 6 10.00 Fair CLR 49.3 29.1 46% 47 29.96 0.0
03 23:55 SW 5 10.00 Fair CLR 49.5 28.8 45% 48 29.96 0.0
03 23:35 Vrbl 6 10.00 Fair CLR 49.8 28.9 45% 48 29.95 0.0
03 23:15 SW 5 10.00 Fair CLR 50.2 28.4 43% 29.95 0.0
03 22:55 SW 5 10.00 Fair CLR 50.4 28.2 42% 29.95 0.0
03 22:35 W 5 10.00 Fair CLR 50.9 28 41% 29.95 0.0
03 22:15 SW 5 10.00 Fair CLR 51.8 27.5 39% 29.95 0.0
03 21:55 W 6 10.00 Fair CLR 52.5 27.3 38% 29.95 0.0
03 21:35 SW 5 10.00 Fair CLR 52.5 27.5 38% 29.94 0.0
03 21:15 W 6 10.00 Fair CLR 52.7 27.1 37% 29.94 0.0
03 20:55 W 6 10.00 Fair CLR 53.4 27.3 37% 29.93 0.0
03 20:35 SW 5 10.00 Fair CLR 53.6 26.8 36% 29.93 0.0
03 20:15 W 6 10.00 Fair CLR 54 26.8 35% 29.92 0.0
03 19:55 W 7 10.00 Fair CLR 55.4 27 58.8 53.6 34% 29.91 0.0
03 19:35 W 7 10.00 Fair CLR 55.9 26.6 32% 29.91 0.0
03 19:15 W 14 G 18 10.00 Fair CLR 56.5 26.6 32% 29.91 0.0
03 18:55 W 13 10.00 Fair CLR 57.2 27.1 32% 29.91 0.0
03 18:35 NW 12 10.00 Fair CLR 57.7 27.1 31% 29.9 0.0
03 18:15 W 16 G 22 10.00 Fair CLR 57.7 26.2 30% 29.91 0.0
03 17:55 W 9 10.00 A Few Clouds FEW080 58.3 27.3 31% 29.9 0.0
03 17:35 W 13 G 22 9.00 A Few Clouds FEW080 58.1 26.4 30% 29.91 0.0
03 17:15 W 16 10.00 A Few Clouds FEW080 57.9 25.2 28% 29.9 0.0
03 16:55 NW 18 G 30 10.00 Mostly Cloudy BKN080 58.6 25.7 28% 29.9 0.0
03 16:35 W 17 10.00 Partly Cloudy SCT080 58.5 25.7 28% 29.91 0.0
03 16:15 W 20 G 26 10.00 A Few Clouds FEW080 57.7 25.5 29% 29.91 0.0
03 15:55 W 16 G 30 10.00 Mostly Cloudy BKN075 57.2 26.2 30% 29.91 0.0
03 15:35 W 16 10.00 Mostly Cloudy BKN075 55.2 25.2 31% 29.92 0.0
03 14:55 NW 12 G 26 10.00 Partly Cloudy SCT070 55.9 25.9 31% 29.93 0.0
03 14:35 W 20 G 29 9.00 Mostly Cloudy BKN070 56.1 27.1 33% 29.94 0.0
03 14:15 NW 15 G 23 10.00 Overcast OVC070 54.3 25.7 33% 29.94 0.0
03 13:55 NW 21 G 29 10.00 Mostly Cloudy and Breezy BKN070 55.2 24.8 55.9 43.2 31% 29.94 0.0
03 13:35 NW 15 G 25 10.00 Partly Cloudy SCT070 54.5 24.4 31% 29.94 0.0
03 13:15 NW 15 G 28 10.00 A Few Clouds FEW070 53.8 24.3 32% 29.95 0.0
03 12:55 NW 18 G 26 10.00 A Few Clouds FEW065 52.9 24.1 33% 29.95 0.0
03 12:35 NW 14 G 21 10.00 Mostly Cloudy BKN065 52.3 25 35% 29.95 0.0
03 12:15 NW 12 G 24 10.00 Partly Cloudy SCT060 51.6 25.7 37% 29.96 0.0
03 11:55 NW 16 10.00 Partly Cloudy SCT060 50.9 25 36% 29.96 0.0
03 11:35 NW 14 G 28 10.00 Partly Cloudy SCT055 49.6 25.5 39% 45 29.97 0.0
03 11:15 NW 17 G 24 10.00 A Few Clouds FEW050 50.2 26.4 40% 29.97 0.0
03 10:55 NW 20 G 24 10.00 Mostly Cloudy SCT046 BKN055 46.6 26.8 46% 40 29.97 0.0
03 10:35 N 14 G 20 10.00 Partly Cloudy SCT043 SCT055 48.6 28.6 46% 44 29.97 0.0
03 10:15 NW 12 G 20 10.00 Overcast OVC042 48.4 29.5 48% 44 29.97 0.0
03 09:55 NW 15 G 20 10.00 Mostly Cloudy BKN043 47.7 29.3 49% 42 29.97 0.0
03 09:35 NW 12 G 21 10.00 Mostly Cloudy SCT040 BKN048 45.9 29.8 54% 41 29.97 0.0
03 09:15 NW 14 10.00 Partly Cloudy SCT038 SCT047 45.1 29.5 54% 39 29.97 0.0
03 08:55 NW 9 10.00 Partly Cloudy FEW037 SCT070 45.3 30.6 56% 41 29.96 0.0
03 08:35 NW 17 G 24 10.00 Mostly Cloudy BKN070 43.5 29.5 58% 36 29.96 0.0
03 08:15 NW 14 10.00 Mostly Cloudy BKN065 44.8 30 56% 39 29.96 0.0
03 07:55 NW 16 G 23 10.00 Mostly Cloudy BKN060 44.2 30.9 44.2 38.3 60% 38 29.95 0.0
03 07:35 NW 10 10.00 Mostly Cloudy BKN060 43.7 31.8 63% 39 29.95 0.0
03 07:15 NW 9 10.00 Mostly Cloudy SCT060 BKN080 42.3 30.6 63% 37 29.94 0.0
03 06:55 NW 14 10.00 Overcast SCT055 OVC075 42.6 30.6 62% 36 29.93 0.0
03 06:35 NW 13 10.00 Overcast BKN055 OVC080 42.6 31.5 65% 37 29.92 0.0
03 06:15 NW 13 10.00 Overcast BKN055 OVC075 42.6 32.2 67% 37 29.91 0.0
03 05:55 NW 9 10.00 Overcast FEW050 OVC070 42.3 33.4 71% 37 29.9 0.0
03 05:35 NW 9 10.00 Overcast BKN049 OVC070 42.4 33.4 71% 38 29.9 0.0
03 05:15 NW 10 10.00 Overcast OVC047 42.3 34.2 73% 37 29.89 0.0
03 04:55 NW 10 10.00 Overcast FEW039 BKN049 OVC060 41.7 34.3 75% 36 29.89 0.0
03 04:35 NW 10 10.00 Overcast OVC045 40.5 35.6 83% 35 29.89 0.0
03 04:15 W 12 10.00 Mostly Cloudy BKN045 40.5 35.4 82% 34 29.88 0.0
03 03:55 W 12 10.00 Mostly Cloudy BKN050 39.6 35.4 85% 33 29.87 0.0
03 03:35 NW 12 10.00 Partly Cloudy SCT050 39.7 35.4 85% 33 29.87 0.0
03 03:15 W 9 10.00 Fair CLR 39.2 35.2 86% 34 29.87 0.0
03 02:55 N 8 10.00 Fair CLR 41.4 34.9 78% 37 29.86 0.0
03 02:35 NW 7 10.00 Fair CLR 41 34.9 79% 37 29.86 0.0
03 02:15 NW 8 10.00 Fair CLR 39.2 34.5 83% 34 29.87 0.0
03 01:55 NW 5 10.00 Fair CLR 40.5 34.9 51.3 39.7 81% 38 29.88 0.0
03 01:35 NW 5 10.00 Fair CLR 40.6 34.7 79% 38 29.88 0.0
03 01:15 W 8 10.00 Fair CLR 41.4 34.9 78% 37 29.89 0.0
03 00:55 NW 10 10.00 Partly Cloudy SCT085 44.4 34.2 67% 40 29.89 0.0
03 00:35 NW 10 10.00 Mostly Cloudy BKN085 44.8 34.2 66% 40 29.89 0.0
03 00:15 NW 10 10.00 Overcast OVC085 45.3 34 65% 41 29.89 0.0
02 23:55 NW 15 10.00 Overcast OVC085 46.6 33.8 61% 41 29.9 0.0
02 23:35 NW 13 10.00 Overcast OVC085 47.1 34.5 62% 42 29.9 0.0
02 23:15 NW 13 10.00 Overcast OVC085 48 33.4 57% 43 29.9 0.0
02 22:55 NW 10 10.00 Overcast OVC085 48 33.3 57% 44 29.91 0.0
02 22:35 NW 12 10.00 Overcast OVC085 48.7 32.2 53% 44 29.91 0.0
02 22:15 NW 8 10.00 Overcast OVC085 49.3 31.5 50% 46 29.91 0.0
02 21:55 NW 8 10.00 Overcast OVC085 49.5 30.4 48% 47 29.91 0.0
02 21:35 NW 7 10.00 Overcast OVC085 49.1 30.4 49% 47 29.9 0.0
02 21:15 NW 6 10.00 Mostly Cloudy BKN090 48.9 30.2 49% 47 29.9 0.0
02 20:55 NW 7 10.00 Partly Cloudy SCT180 49.6 30 47% 47 29.89 0.0
02 20:35 NW 8 10.00 Overcast FEW085 OVC190 50.2 29.7 45% 29.89 0.0
02 20:15 NW 8 10.00 Overcast SCT085 OVC190 50.7 29.5 44% 29.88 0.0
02 19:55 NW 6 10.00 Overcast SCT085 OVC190 51.1 29.5 59.4 51.1 44% 29.88 0.0
02 19:35 NW 7 10.00 Overcast BKN085 OVC200 51.8 28.9 41% 29.87 0.0
02 19:15 NW 7 10.00 Overcast BKN085 OVC180 52.7 28.4 39% 29.87 0.0
02 18:55 N 8 10.00 Overcast BKN080 OVC180 53.2 28 38% 29.87 0.0
02 18:35 NW 9 9.00 Overcast OVC080 54 28 37% 29.87 0.0
02 18:15 NW 8 10.00 Overcast OVC080 56.1 28.4 35% 29.87 0.0
02 17:55 NW 14 10.00 Mostly Cloudy BKN080 56.5 28.8 35% 29.87 0.0
02 17:35 NW 13 10.00 Mostly Cloudy BKN080 57.2 29.7 35% 29.86 0.0
02 17:15 NW 13 10.00 Mostly Cloudy BKN075 55.2 28.6 36% 29.86 0.0
02 16:55 W 13 10.00 Mostly Cloudy BKN075 BKN200 55.9 29.7 37% 29.85 0.0
02 16:35 NW 13 10.00 Overcast OVC070 56.8 29.1 35% 29.85 0.0
02 16:15 NW 16 G 21 10.00 Overcast OVC070 56.5 29.3 35% 29.86 0.0
02 15:55 W 17 10.00 Mostly Cloudy BKN070 59 28.4 31% 29.86 0.0
02 15:35 NW 9 10.00 Mostly Cloudy BKN070 BKN210 57.7 29.8 35% 29.87 0.0
02 15:15 NW 9 10.00 Mostly Cloudy BKN065 55.2 29.3 37% 29.88 0.0
02 14:55 NW 10 10.00 Mostly Cloudy BKN065 58.1 31.6 37% 29.89 0.0
02 14:35 NW 7 10.00 Overcast BKN065 OVC200 55.8 30.6 38% 29.9 0.0
02 14:15 NW 7 10.00 Overcast SCT060 OVC210 55.4 30.6 39% 29.9 0.0
02 13:55 N 10 10.00 Overcast BKN055 BKN070 OVC200 54.5 30.7 55.6 45.1 40% 29.9 0.0
02 13:35 N 6 10.00 Mostly Cloudy FEW055 BKN200 BKN220 55.4 32 41% 29.9 0.0
02 13:15 NW 8 10.00 Mostly Cloudy FEW050 BKN200 54.7 32.7 43% 29.91 0.0
02 12:55 N 8 10.00 Mostly Cloudy BKN050 BKN200 54.7 33.3 44% 29.91 0.0
02 12:35 NW 9 10.00 Overcast SCT049 BKN190 OVC210 54.5 33.8 46% 29.91 0.0
02 12:15 NE 9 10.00 Overcast SCT050 OVC200 54.9 34.2 46% 29.92 0.0
02 11:55 N 9 10.00 Mostly Cloudy FEW048 BKN200 52.9 33.8 48% 29.93 0.0
02 11:35 N 8 10.00 Mostly Cloudy BKN200 BKN220 52.7 34 49% 29.92 0.0
02 11:15 Vrbl 7 10.00 Mostly Cloudy BKN200 51.6 35.4 54% 29.93 0.0
02 10:55 N 9 10.00 Mostly Cloudy BKN210 51.3 36 56% 29.92 0.0
02 10:35 N 10 10.00 Mostly Cloudy BKN220 50.4 35.4 57% 29.92 0.0
02 10:15 N 10 10.00 Partly Cloudy FEW200 SCT230 49.8 34.9 57% 46 29.92 0.0
02 09:55 N 8 10.00 Mostly Cloudy FEW022 BKN230 48.6 39.9 72% 45 29.92 0.0
02 09:35 NW 12 10.00 Mostly Cloudy BKN021 BKN230 48.6 40.6 74% 44 29.93 0.0
02 09:15 N 13 10.00 Mostly Cloudy BKN020 BKN075 47.5 40.6 77% 43 29.93 0.0
02 08:55 N 12 10.00 Overcast BKN018 BKN024 OVC080 47.1 41.2 80% 42 29.93 0.0
02 08:35 N 12 G 20 10.00 Mostly Cloudy SCT018 SCT024 BKN090 46.8 41 80% 42 29.93 0.0
02 08:15 NW 10 10.00 Mostly Cloudy BKN015 BKN095 46.6 41.4 82% 42 29.92 0.0
02 07:55 NW 14 10.00 Mostly Cloudy BKN015 45.3 41.2 50.2 45.3 86% 40 29.92 0.0
02 07:35 NW 12 10.00 Partly Cloudy SCT015 45.3 41.7 87% 40 29.92 0.0
02 07:15 NW 9 10.00 Partly Cloudy FEW017 SCT250 45.9 41.5 85% 42 29.91 0.0
02 06:55 NW 10 9.00 Mostly Cloudy FEW016 BKN085 46 42.3 87% 42 29.9 0.0
02 06:35 NW 14 9.00 Overcast SCT016 BKN023 OVC095 46.2 43.3 90% 41 29.9 0.0
02 06:15 NW 16 10.00 Mostly Cloudy BKN019 BKN025 46.6 43.2 88% 41 29.89 0.0
02 05:55 W 8 10.00 A Few Clouds FEW075 46.4 43.2 89% 43 29.89 0.0
02 05:35 NW 12 10.00 Mostly Cloudy BKN075 46.9 43.9 89% 42 29.89 0.0
02 05:15 W 10 10.00 Mostly Cloudy SCT021 BKN075 47.7 45.9 94% 44 29.89 0.0
02 04:55 W 3 10.00 Overcast FEW023 OVC070 48 45.5 91% 29.89 0.0
02 04:35 Calm 10.00 Overcast OVC070 48.2 45.5 90% 29.88 0.0
02 04:15 NW 3 10.00 Overcast OVC070 47.3 45.3 93% 29.87 0.0
02 03:55 Calm 10.00 Overcast OVC060 49.3 45.3 86% 29.87 0.0
02 03:35 N 3 10.00 Overcast BKN055 OVC065 49.6 45.1 85% 29.87 0.0
02 03:15 NW 5 10.00 Overcast BKN047 OVC065 49.5 45.1 85% 48 29.88 0.0
02 02:55 Calm 10.00 Overcast SCT046 BKN110 OVC130 48.7 45.5 89% 29.89 0.0
02 02:35 NW 3 10.00 Overcast FEW042 SCT075 BKN110 OVC130 49.6 44.8 83% 29.88 0.0
02 02:15 N 7 10.00 Overcast BKN075 OVC130 50 45 83% 48 29.88 0.0
02 01:55 NW 10 10.00 Overcast FEW060 SCT080 OVC130 50 45.5 55.9 48.9 85% 46 29.89 0.0
02 01:35 NW 8 9.00 Light Rain SCT065 BKN080 BKN140 49.3 46.4 90% 46 29.89 0.0
02 01:15 W 5 10.00 Overcast BKN065 OVC085 51.3 45.3 80% 29.89 0.0
Date Time (edt) Wind (mph) Vis. (mi.) Weather Sky Cond. Air Dwpt Max. Min. Relative Humidity Wind Chill (°F) Heat Index (°F) altimeter (in) sea level (mb) 1 hr 3 hr 6 hr
6 hour
Temperature (ºF) Pressure Precipitation (in)